createdAt,value
2022-09-21T00:01:33.273Z,100.00
2022-09-21T00:04:03.098Z,100.00
2022-09-21T00:06:34.543Z,100.00
2022-09-21T00:09:04.981Z,100.00
2022-09-21T00:11:34.363Z,100.00
2022-09-21T00:14:07.111Z,100.00
2022-09-21T00:16:35.286Z,100.00
2022-09-21T00:19:03.850Z,100.00
2022-09-21T00:21:33.230Z,100.00
2022-09-21T00:24:02.490Z,100.00
2022-09-21T00:26:32.846Z,100.00
2022-09-21T00:29:03.292Z,100.00
2022-09-21T00:31:31.998Z,100.00
2022-09-21T00:34:03.830Z,100.00
2022-09-21T00:36:34.447Z,100.00
2022-09-21T00:39:04.127Z,100.00
2022-09-21T00:41:34.473Z,100.00
2022-09-21T00:44:31.858Z,100.00
2022-09-21T00:47:04.632Z,100.00
2022-09-21T00:49:35.094Z,100.00
2022-09-21T00:52:06.768Z,100.00
2022-09-21T00:54:39.157Z,100.00
2022-09-21T00:57:08.170Z,100.00
2022-09-21T00:59:38.816Z,100.00
2022-09-21T01:02:07.162Z,100.00
2022-09-21T01:04:36.325Z,100.00
2022-09-21T01:07:07.555Z,100.00
2022-09-21T01:09:36.119Z,100.00
2022-09-21T01:12:13.436Z,100.00
2022-09-21T01:14:54.764Z,100.00
2022-09-21T01:17:29.624Z,100.00
2022-09-21T01:20:22.042Z,100.00
2022-09-21T01:23:06.671Z,100.00
2022-09-21T01:25:40.236Z,100.00
2022-09-21T01:28:24.083Z,100.00
2022-09-21T01:30:54.229Z,100.00
2022-09-21T01:33:26.542Z,100.00
2022-09-21T01:35:58.119Z,100.00
2022-09-21T01:38:28.992Z,100.00
2022-09-21T01:41:00.228Z,100.00
2022-09-21T01:43:33.114Z,100.00
2022-09-21T01:46:04.343Z,100.00
2022-09-21T01:48:35.300Z,100.00
2022-09-21T01:51:05.408Z,100.00
2022-09-21T01:53:34.912Z,100.00
2022-09-21T01:56:07.638Z,100.00
2022-09-21T01:58:40.180Z,100.00
2022-09-21T02:01:13.914Z,100.00
2022-09-21T02:03:46.353Z,100.00
2022-09-21T02:06:14.746Z,100.00
2022-09-21T02:08:42.394Z,100.00
2022-09-21T02:11:12.854Z,100.00
2022-09-21T02:14:42.133Z,100.00
2022-09-21T02:17:19.166Z,100.00
2022-09-21T02:19:54.260Z,100.00
2022-09-21T02:22:29.648Z,100.00
2022-09-21T02:25:05.341Z,100.00
2022-09-21T02:27:36.967Z,100.00
2022-09-21T02:30:09.095Z,100.00
2022-09-21T02:32:50.492Z,100.00
2022-09-21T02:35:30.541Z,100.00
2022-09-21T02:38:07.545Z,100.00
2022-09-21T02:40:40.456Z,100.00
2022-09-21T02:43:12.060Z,100.00
2022-09-21T02:45:45.354Z,100.00
2022-09-21T02:48:16.840Z,100.00
2022-09-21T02:50:46.474Z,100.00
2022-09-21T02:53:18.161Z,100.00
2022-09-21T02:55:47.295Z,100.00
2022-09-21T02:58:18.049Z,100.00
2022-09-21T03:00:45.860Z,100.00
2022-09-21T03:03:22.071Z,100.00
2022-09-21T03:05:51.576Z,100.00
2022-09-21T03:08:19.836Z,100.00
2022-09-21T03:10:50.858Z,100.00
2022-09-21T03:13:19.587Z,100.00
2022-09-21T03:15:48.461Z,100.00
2022-09-21T03:18:16.087Z,100.00
2022-09-21T03:20:48.016Z,100.00
2022-09-21T03:23:16.487Z,100.00
2022-09-21T03:25:45.269Z,100.00
2022-09-21T03:28:13.593Z,100.00
2022-09-21T03:30:41.837Z,100.00
2022-09-21T03:33:10.227Z,100.00
2022-09-21T03:35:39.393Z,100.00
2022-09-21T03:38:08.596Z,100.00
2022-09-21T03:40:36.361Z,100.00
2022-09-21T03:43:04.871Z,100.00
2022-09-21T03:45:33.547Z,100.00
2022-09-21T03:48:02.635Z,100.00
2022-09-21T03:50:30.505Z,100.00
2022-09-21T03:52:58.724Z,100.00
2022-09-21T03:55:28.068Z,100.00
2022-09-21T03:57:55.671Z,100.00
2022-09-21T04:00:24.887Z,100.00
2022-09-21T04:02:53.721Z,100.00
2022-09-21T04:05:21.837Z,100.00
2022-09-21T04:07:50.072Z,100.00
2022-09-21T04:10:21.569Z,100.00
2022-09-21T04:12:52.226Z,100.00
2022-09-21T04:15:20.518Z,100.00
2022-09-21T04:17:48.596Z,100.00
2022-09-21T04:20:16.710Z,100.00
2022-09-21T04:22:44.893Z,100.00
2022-09-21T04:25:13.126Z,100.00
2022-09-21T04:27:41.542Z,100.00
2022-09-21T04:30:13.436Z,100.00
2022-09-21T04:32:41.593Z,100.00
2022-09-21T04:35:10.639Z,100.00
2022-09-21T04:37:40.516Z,100.00
2022-09-21T04:40:10.578Z,100.00
2022-09-21T04:42:38.805Z,100.00
2022-09-21T04:45:08.392Z,100.00
2022-09-21T04:47:37.745Z,100.00
2022-09-21T04:50:06.539Z,100.00
2022-09-21T04:52:34.497Z,100.00
2022-09-21T04:55:02.102Z,100.00
2022-09-21T04:57:30.582Z,100.00
2022-09-21T04:59:58.235Z,100.00
2022-09-21T05:02:27.189Z,100.00
2022-09-21T05:04:56.496Z,100.00
2022-09-21T05:07:24.117Z,100.00
2022-09-21T05:10:09.502Z,100.00
2022-09-21T05:12:40.870Z,100.00
2022-09-21T05:15:10.581Z,100.00
2022-09-21T05:17:38.312Z,100.00
2022-09-21T05:20:08.446Z,100.00
2022-09-21T05:22:36.319Z,100.00
2022-09-21T05:25:04.405Z,100.00
2022-09-21T05:27:32.068Z,100.00
2022-09-21T05:30:00.343Z,100.00
2022-09-21T05:32:31.400Z,100.00
2022-09-21T05:35:08.697Z,100.00
2022-09-21T05:37:48.546Z,100.00
2022-09-21T05:40:17.234Z,100.00
2022-09-21T05:42:45.827Z,100.00
2022-09-21T05:45:19.104Z,100.00
2022-09-21T05:47:54.366Z,100.00
2022-09-21T05:50:35.442Z,100.00
2022-09-21T05:53:17.185Z,100.00
2022-09-21T05:55:52.632Z,100.00
2022-09-21T05:58:24.165Z,100.00
2022-09-21T06:00:59.692Z,100.00
2022-09-21T06:03:29.532Z,100.00
2022-09-21T06:05:59.189Z,100.00
2022-09-21T06:08:28.200Z,100.00
2022-09-21T06:10:56.593Z,100.00
2022-09-21T06:13:24.441Z,100.00
2022-09-21T06:15:51.998Z,100.00
2022-09-21T06:18:20.187Z,100.00
2022-09-21T06:20:48.070Z,100.00
2022-09-21T06:23:18.149Z,100.00
2022-09-21T06:25:45.986Z,100.00
2022-09-21T06:28:14.304Z,100.00
2022-09-21T06:30:44.830Z,100.00
2022-09-21T06:33:12.960Z,100.00
2022-09-21T06:35:40.747Z,100.00
2022-09-21T06:38:09.183Z,100.00
2022-09-21T06:40:41.615Z,100.00
2022-09-21T06:43:10.289Z,100.00
2022-09-21T06:45:38.166Z,100.00
2022-09-21T06:48:06.963Z,100.00
2022-09-21T06:50:39.918Z,100.00
2022-09-21T06:53:08.895Z,100.00
2022-09-21T06:55:36.555Z,100.00
2022-09-21T06:58:09.382Z,100.00
2022-09-21T07:00:37.474Z,100.00
2022-09-21T07:03:05.523Z,100.00
2022-09-21T07:05:33.610Z,100.00
2022-09-21T07:08:02.225Z,100.00
2022-09-21T07:10:30.352Z,100.00
2022-09-21T07:13:03.642Z,100.00
2022-09-21T07:15:33.699Z,100.00
2022-09-21T07:18:08.462Z,100.00
2022-09-21T07:20:39.243Z,100.00
2022-09-21T07:23:11.545Z,100.00
2022-09-21T07:25:39.753Z,100.00
2022-09-21T07:28:07.740Z,100.00
2022-09-21T07:30:38.504Z,100.00
2022-09-21T07:33:08.201Z,100.00
2022-09-21T07:35:36.739Z,100.00
2022-09-21T07:38:06.464Z,100.00
2022-09-21T07:40:35.607Z,100.00
2022-09-21T07:43:05.004Z,100.00
2022-09-21T07:45:32.763Z,100.00
2022-09-21T07:48:05.358Z,100.00
2022-09-21T07:50:34.082Z,100.00
2022-09-21T07:53:03.319Z,100.00
2022-09-21T07:55:31.733Z,100.00
2022-09-21T07:58:17.329Z,100.00
2022-09-21T08:00:45.293Z,100.00
2022-09-21T08:03:14.475Z,100.00
2022-09-21T08:05:42.426Z,100.00
2022-09-21T08:08:10.600Z,100.00
2022-09-21T08:10:39.449Z,100.00
2022-09-21T08:13:07.178Z,100.00
2022-09-21T08:15:49.474Z,100.00
2022-09-21T08:18:19.746Z,100.00
2022-09-21T08:20:55.700Z,100.00
2022-09-21T08:23:26.354Z,100.00
2022-09-21T08:25:54.818Z,100.00
2022-09-21T08:28:23.239Z,100.00
2022-09-21T08:30:51.729Z,100.00
2022-09-21T08:33:24.835Z,100.00
2022-09-21T08:35:55.417Z,100.00
2022-09-21T08:38:23.596Z,100.00
2022-09-21T08:40:53.044Z,100.00
2022-09-21T08:43:29.101Z,100.00
2022-09-21T08:45:57.472Z,100.00
2022-09-21T08:48:35.802Z,100.00
2022-09-21T08:51:08.072Z,100.00
2022-09-21T08:53:37.799Z,100.00
2022-09-21T08:56:06.229Z,100.00
2022-09-21T08:58:34.079Z,100.00
2022-09-21T09:01:15.815Z,100.00
2022-09-21T09:03:55.576Z,100.00
2022-09-21T09:06:30.716Z,100.00
2022-09-21T09:09:26.189Z,100.00
2022-09-21T09:12:10.907Z,100.00
2022-09-21T09:15:11.626Z,100.00
2022-09-21T09:17:49.078Z,100.00
2022-09-21T09:20:21.215Z,100.00
2022-09-21T09:22:51.624Z,100.00
2022-09-21T09:25:22.405Z,100.00
2022-09-21T09:27:52.870Z,100.00
2022-09-21T09:31:22.164Z,100.00
2022-09-21T09:33:54.697Z,100.00
2022-09-21T09:36:53.845Z,100.00
2022-09-21T09:39:16.152Z,100.00
2022-09-21T09:41:59.183Z,100.00
2022-09-21T09:44:39.283Z,100.00
2022-09-21T09:47:13.859Z,100.00
2022-09-21T09:49:50.105Z,100.00
2022-09-21T09:52:20.674Z,100.00
2022-09-21T09:54:48.782Z,100.00
2022-09-21T09:57:17.120Z,100.00
2022-09-21T09:59:53.341Z,97.59
2022-09-21T10:02:24.374Z,99.59
2022-09-21T10:05:03.517Z,96.49
2022-09-21T10:07:37.362Z,94.57
2022-09-21T10:10:24.050Z,94.81
2022-09-21T10:12:52.648Z,91.55
2022-09-21T10:15:21.832Z,93.28
2022-09-21T10:17:50.169Z,89.48
2022-09-21T10:20:20.300Z,86.45
2022-09-21T10:22:55.039Z,84.37
2022-09-21T10:25:22.988Z,84.24
2022-09-21T10:27:52.183Z,84.71
2022-09-21T10:30:34.145Z,81.22
2022-09-21T10:33:03.313Z,82.18
2022-09-21T10:35:31.104Z,79.51
2022-09-21T10:38:21.149Z,79.60
2022-09-21T10:40:50.357Z,74.91
2022-09-21T10:43:27.255Z,77.89
2022-09-21T10:45:56.679Z,75.00
2022-09-21T10:48:25.522Z,73.42
2022-09-21T10:50:54.999Z,76.43
2022-09-21T10:53:28.668Z,77.22
2022-09-21T10:56:14.998Z,74.01
2022-09-21T10:59:12.763Z,76.39
2022-09-21T11:01:45.602Z,75.97
2022-09-21T11:04:17.256Z,72.79
2022-09-21T11:06:47.055Z,73.27
2022-09-21T11:09:18.433Z,72.70
2022-09-21T11:11:53.292Z,71.49
2022-09-21T11:14:30.845Z,73.25
2022-09-21T11:17:01.771Z,70.36
2022-09-21T11:19:34.871Z,71.24
2022-09-21T11:22:08.756Z,73.47
2022-09-21T11:24:47.298Z,72.87
2022-09-21T11:27:16.700Z,72.87
2022-09-21T11:29:51.534Z,74.72
2022-09-21T11:32:37.828Z,73.69
2022-09-21T11:35:20.078Z,71.88
2022-09-21T11:38:06.340Z,73.82
2022-09-21T11:40:45.475Z,75.30
2022-09-21T11:43:24.155Z,75.62
2022-09-21T11:45:59.472Z,77.97
2022-09-21T11:48:38.571Z,74.39
2022-09-21T11:52:08.551Z,75.27
2022-09-21T11:54:58.678Z,73.51
2022-09-21T11:57:29.452Z,72.75
2022-09-21T12:00:15.615Z,73.68
2022-09-21T12:03:25.931Z,75.28
2022-09-21T12:06:05.335Z,79.32
2022-09-21T12:08:46.386Z,79.09
2022-09-21T12:11:21.203Z,77.72
2022-09-21T12:14:00.087Z,75.04
2022-09-21T12:16:34.283Z,74.82
2022-09-21T12:19:13.591Z,77.71
2022-09-21T12:21:45.606Z,77.48
2022-09-21T12:24:16.516Z,75.62
2022-09-21T12:26:47.344Z,75.82
2022-09-21T12:29:25.478Z,75.98
2022-09-21T12:32:00.807Z,75.69
2022-09-21T12:34:31.991Z,75.62
2022-09-21T12:37:06.637Z,74.80
2022-09-21T12:39:40.438Z,73.91
2022-09-21T12:42:27.078Z,72.21
2022-09-21T12:45:59.535Z,74.20
2022-09-21T12:48:34.491Z,74.51
2022-09-21T12:51:06.424Z,74.11
2022-09-21T12:53:37.729Z,75.06
2022-09-21T12:56:10.195Z,74.10
2022-09-21T12:58:55.349Z,73.63
2022-09-21T13:01:30.991Z,73.33
2022-09-21T13:04:14.138Z,72.75
2022-09-21T13:06:58.602Z,73.24
2022-09-21T13:09:27.100Z,72.54
2022-09-21T13:11:57.779Z,72.25
2022-09-21T13:14:26.769Z,65.62
2022-09-21T13:16:57.620Z,63.66
2022-09-21T13:19:29.775Z,57.91
2022-09-21T13:22:21.575Z,54.81
2022-09-21T13:25:01.620Z,56.36
2022-09-21T13:28:00.564Z,51.94
2022-09-21T13:30:35.750Z,49.06
2022-09-21T13:33:05.219Z,50.76
2022-09-21T13:36:10.712Z,49.74
2022-09-21T13:39:14.419Z,54.51
2022-09-21T13:42:03.210Z,57.10
2022-09-21T13:44:42.602Z,60.83
2022-09-21T13:47:11.436Z,55.82
2022-09-21T13:49:50.957Z,58.25
2022-09-21T13:52:35.588Z,55.97
2022-09-21T13:55:05.603Z,53.34
2022-09-21T13:57:38.144Z,53.42
2022-09-21T14:00:37.859Z,51.42
2022-09-21T14:03:08.155Z,49.00
2022-09-21T14:05:40.696Z,49.66
2022-09-21T14:08:28.177Z,49.24
2022-09-21T14:10:59.147Z,47.10
2022-09-21T14:13:31.323Z,42.53
2022-09-21T14:16:27.605Z,46.72
2022-09-21T14:18:55.443Z,45.69
2022-09-21T14:21:24.085Z,42.55
2022-09-21T14:24:27.154Z,42.36
2022-09-21T14:27:09.725Z,42.56
2022-09-21T14:29:45.863Z,44.01
2022-09-21T14:32:23.529Z,50.52
2022-09-21T14:34:56.500Z,53.79
2022-09-21T14:37:32.584Z,54.74
2022-09-21T14:40:05.850Z,54.38
2022-09-21T14:42:35.031Z,46.24
2022-09-21T14:45:04.331Z,52.78
2022-09-21T14:47:46.252Z,54.65
2022-09-21T14:50:32.731Z,56.96
2022-09-21T14:53:10.049Z,59.24
2022-09-21T14:55:56.660Z,61.03
2022-09-21T14:58:36.051Z,61.04
2022-09-21T15:01:22.175Z,61.46
2022-09-21T15:04:10.538Z,51.52
2022-09-21T15:06:59.096Z,53.40
2022-09-21T15:10:02.652Z,44.93
2022-09-21T15:12:38.791Z,42.50
2022-09-21T15:15:22.099Z,40.45
2022-09-21T15:18:03.826Z,41.86
2022-09-21T15:20:33.312Z,43.40
2022-09-21T15:23:02.247Z,39.17
2022-09-21T15:25:33.399Z,41.66
2022-09-21T15:28:04.292Z,45.30
2022-09-21T15:30:34.424Z,43.42
2022-09-21T15:33:03.178Z,43.55
2022-09-21T15:35:33.238Z,41.48
2022-09-21T15:38:28.114Z,41.14
2022-09-21T15:41:01.426Z,41.14
2022-09-21T15:43:34.424Z,42.48
2022-09-21T15:46:04.578Z,43.31
2022-09-21T15:48:39.419Z,42.61
2022-09-21T15:51:13.068Z,42.14
2022-09-21T15:53:45.266Z,43.06
2022-09-21T15:56:19.389Z,43.74
2022-09-21T15:58:53.746Z,41.95
2022-09-21T16:01:23.772Z,44.26
2022-09-21T16:04:05.137Z,42.86
2022-09-21T16:06:38.435Z,44.05
2022-09-21T16:09:42.687Z,45.13
2022-09-21T16:12:41.710Z,45.87
2022-09-21T16:15:17.843Z,43.04
2022-09-21T16:18:01.586Z,42.59
2022-09-21T16:20:41.732Z,48.63
2022-09-21T16:23:14.828Z,51.42
2022-09-21T16:25:47.196Z,59.41
2022-09-21T16:28:36.316Z,61.77
2022-09-21T16:31:25.376Z,64.61
2022-09-21T16:34:05.791Z,65.86
2022-09-21T16:36:43.551Z,67.83
2022-09-21T16:39:15.568Z,72.73
2022-09-21T16:41:47.591Z,70.74
2022-09-21T16:44:21.046Z,72.70
2022-09-21T16:46:53.946Z,69.63
2022-09-21T16:49:25.747Z,70.04
2022-09-21T16:51:55.935Z,74.87
2022-09-21T16:54:25.170Z,73.09
2022-09-21T16:56:55.110Z,75.26
2022-09-21T16:59:23.058Z,78.06
2022-09-21T17:01:57.809Z,76.70
2022-09-21T17:04:27.234Z,73.70
2022-09-21T17:06:56.354Z,76.75
2022-09-21T17:09:29.907Z,80.10
2022-09-21T17:11:59.449Z,83.03
2022-09-21T17:14:27.211Z,84.82
2022-09-21T17:16:58.766Z,83.37
2022-09-21T17:19:28.068Z,84.34
2022-09-21T17:21:55.753Z,85.33
2022-09-21T17:24:48.795Z,85.34
2022-09-21T17:27:12.283Z,88.84
2022-09-21T17:29:47.234Z,86.99
2022-09-21T17:32:20.549Z,89.21
2022-09-21T17:34:50.498Z,88.81
2022-09-21T17:37:18.141Z,89.56
2022-09-21T17:39:46.239Z,88.83
2022-09-21T17:42:17.967Z,91.92
2022-09-21T17:45:01.585Z,93.18
2022-09-21T17:47:33.856Z,94.32
2022-09-21T17:50:10.035Z,95.40
2022-09-21T17:52:55.850Z,95.58
2022-09-21T17:55:24.190Z,94.70
2022-09-21T18:03:44.691Z,98.89
2022-09-21T18:06:13.847Z,99.30
2022-09-21T18:08:42.350Z,98.43
2022-09-21T18:11:33.143Z,91.98
2022-09-21T18:14:08.297Z,91.75
2022-09-21T18:16:47.416Z,92.44
2022-09-21T18:19:30.930Z,95.26
2022-09-21T18:22:04.696Z,97.82
2022-09-21T18:24:32.905Z,97.15
2022-09-21T18:27:02.227Z,100.00
2022-09-21T18:29:41.128Z,100.00
2022-09-21T18:32:25.690Z,100.00
2022-09-21T18:35:13.859Z,100.00
2022-09-21T18:37:48.635Z,100.00
2022-09-21T18:40:22.342Z,100.00
2022-09-21T18:42:55.879Z,100.00
2022-09-21T18:45:28.927Z,100.00
2022-09-21T18:48:17.474Z,100.00
2022-09-21T18:50:50.828Z,100.00
2022-09-21T18:53:28.121Z,100.00
2022-09-21T18:55:57.062Z,100.00
2022-09-21T18:58:25.455Z,100.00
2022-09-21T19:00:53.845Z,100.00
2022-09-21T19:03:22.233Z,100.00
2022-09-21T19:06:13.005Z,100.00
2022-09-21T19:08:46.254Z,100.00
2022-09-21T19:11:22.246Z,100.00
2022-09-21T19:13:56.076Z,100.00
2022-09-21T19:16:29.281Z,100.00
2022-09-21T19:19:06.662Z,100.00
2022-09-21T19:21:41.802Z,100.00
2022-09-21T19:24:19.831Z,100.00
2022-09-21T19:27:03.341Z,100.00
2022-09-21T19:29:42.835Z,100.00
2022-09-21T19:32:17.439Z,100.00
2022-09-21T19:34:45.945Z,100.00
2022-09-21T19:37:15.384Z,100.00
2022-09-21T19:39:44.524Z,100.00
2022-09-21T19:42:21.211Z,100.00
2022-09-21T19:44:59.153Z,100.00
2022-09-21T19:47:30.513Z,100.00
2022-09-21T19:50:04.108Z,100.00
2022-09-21T19:52:36.579Z,100.00
2022-09-21T19:55:23.152Z,100.00
2022-09-21T19:58:09.257Z,100.00
2022-09-21T20:00:38.427Z,100.00
2022-09-21T20:03:14.235Z,100.00
2022-09-21T20:05:49.378Z,100.00
2022-09-21T20:08:26.484Z,100.00
2022-09-21T20:11:08.062Z,100.00
2022-09-21T20:14:07.306Z,100.00
2022-09-21T20:16:43.744Z,100.00
2022-09-21T20:19:19.376Z,100.00
2022-09-21T20:21:53.286Z,100.00
2022-09-21T20:24:32.061Z,100.00
2022-09-21T20:27:00.324Z,100.00
2022-09-21T20:29:28.300Z,100.00
2022-09-21T20:31:56.510Z,100.00
2022-09-21T20:34:24.432Z,100.00
2022-09-21T20:36:52.306Z,100.00
2022-09-21T20:39:20.235Z,100.00
2022-09-21T20:41:49.765Z,100.00
2022-09-21T20:44:17.641Z,100.00
2022-09-21T20:46:45.179Z,100.00
2022-09-21T20:49:15.244Z,100.00
2022-09-21T20:51:43.040Z,100.00
2022-09-21T20:54:11.444Z,100.00
2022-09-21T20:56:39.499Z,100.00
2022-09-21T20:59:09.481Z,100.00
2022-09-21T21:01:37.261Z,100.00
2022-09-21T21:04:05.336Z,100.00
2022-09-21T21:06:35.147Z,100.00
2022-09-21T21:09:02.778Z,100.00
2022-09-21T21:11:31.486Z,100.00
2022-09-21T21:13:59.332Z,100.00
2022-09-21T21:16:28.448Z,100.00
2022-09-21T21:18:56.398Z,100.00
2022-09-21T21:21:25.555Z,100.00
2022-09-21T21:24:10.912Z,100.00
2022-09-21T21:27:00.671Z,100.00
2022-09-21T21:29:26.605Z,100.00
2022-09-21T21:32:00.186Z,100.00
2022-09-21T21:34:28.192Z,100.00
2022-09-21T21:36:55.970Z,100.00
2022-09-21T21:39:23.591Z,100.00
2022-09-21T21:41:51.261Z,100.00
2022-09-21T21:44:18.886Z,100.00
2022-09-21T21:46:46.489Z,100.00
2022-09-21T21:49:16.138Z,100.00
2022-09-21T21:51:44.752Z,100.00
2022-09-21T21:54:13.336Z,100.00
2022-09-21T21:56:41.607Z,100.00
2022-09-21T21:59:11.318Z,100.00
2022-09-21T22:01:41.535Z,100.00
2022-09-21T22:04:09.608Z,100.00
2022-09-21T22:06:40.308Z,100.00
2022-09-21T22:09:10.394Z,100.00
2022-09-21T22:11:39.148Z,100.00
2022-09-21T22:14:08.341Z,100.00
2022-09-21T22:16:37.866Z,100.00
2022-09-21T22:19:07.143Z,100.00
2022-09-21T22:21:36.253Z,100.00
2022-09-21T22:24:07.109Z,100.00
2022-09-21T22:26:39.135Z,100.00
2022-09-21T22:29:08.972Z,100.00
2022-09-21T22:31:38.819Z,100.00
2022-09-21T22:34:07.739Z,100.00
2022-09-21T22:36:37.006Z,100.00
2022-09-21T22:39:07.452Z,100.00
2022-09-21T22:41:36.848Z,100.00
2022-09-21T22:44:04.791Z,100.00
2022-09-21T22:46:33.370Z,100.00
2022-09-21T22:49:01.907Z,100.00
2022-09-21T22:51:30.222Z,100.00
2022-09-21T22:53:58.014Z,100.00
2022-09-21T22:56:29.121Z,100.00
2022-09-21T22:58:58.281Z,100.00
2022-09-21T23:01:27.723Z,100.00
2022-09-21T23:03:58.421Z,100.00
2022-09-21T23:06:28.111Z,100.00
2022-09-21T23:08:59.400Z,100.00
2022-09-21T23:11:32.104Z,100.00
2022-09-21T23:14:01.112Z,100.00
2022-09-21T23:16:30.254Z,100.00
2022-09-21T23:19:00.018Z,100.00
2022-09-21T23:21:28.867Z,100.00
2022-09-21T23:24:00.244Z,100.00
2022-09-21T23:26:31.328Z,100.00
2022-09-21T23:29:00.627Z,100.00
2022-09-21T23:31:28.742Z,100.00
2022-09-21T23:33:58.295Z,100.00
2022-09-21T23:36:27.691Z,100.00
2022-09-21T23:38:55.824Z,100.00
2022-09-21T23:41:24.907Z,100.00
2022-09-21T23:43:54.775Z,100.00
2022-09-21T23:46:24.734Z,100.00
2022-09-21T23:48:52.852Z,100.00
2022-09-21T23:51:21.156Z,100.00
2022-09-21T23:53:48.944Z,100.00
2022-09-21T23:56:18.488Z,100.00
2022-09-21T23:58:46.795Z,100.00
